Terminal Aerodrome Forecast
Issued by NWS

Home | Current Version | Previous Version | Text Only | Print | Product List | Glossary On
Versions: 1 2 3 4 5 6 7 8 9 10 11 12 13 14 15 16 17 18
000
FTUS45 KCYS 231136
TAFLAR
TAF
KLAR 231136Z 2312/2412 18009KT P6SM SCT200
     FM231600 22020G31KT P6SM SCT100 BKN150
     FM240000 34015G23KT 5SM -RASN BR OVC030
     FM240400 34017G25KT 2SM -SN BR OVC015=

USA.gov is the U.S. government's official web portal to all federal, state and local government web resources and services.